Time;durP1;ratioP1;P1;durP2;ratioP2;P2;SDS_P1;SDS_P2;PMS_P1;PMS_P2;Temp;Humidity;BMP_temperature;BMP_pressure;BME280_temperature;BME280_humidity;BME280_pressure;Samples;Min_cycle;Max_cycle;Signal;HPM_P1;HPM_P2
2022/09/28 00:00:40;;;;;;;4.20;1.75;;;;;;;17.77;100.00;98936.41;5090389;28;20515;-71
2022/09/28 00:03:05;;;;;;;2.53;1.77;;;;;;;17.90;100.00;98929.47;5090493;28;20050;-71
2022/09/28 00:05:31;;;;;;;2.00;1.70;;;;;;;16.99;100.00;98865.13;5090177;28;20389;-71
2022/09/28 00:07:57;;;;;;;2.15;1.80;;;;;;;17.42;100.00;98945.03;5090264;28;20413;-71
2022/09/28 00:10:22;;;;;;;6.00;1.95;;;;;;;17.61;100.00;98914.56;5089210;28;20543;-71
2022/09/28 00:12:49;;;;;;;2.15;1.80;;;;;;;17.32;100.00;98935.44;5089122;28;20523;-71
2022/09/28 00:15:15;;;;;;;2.85;1.80;;;;;;;17.40;100.00;98944.34;5090421;28;20024;-71
2022/09/28 00:17:43;;;;;;;3.30;2.00;;;;;;;17.23;100.00;98943.78;5090683;28;20034;-70
2022/09/28 00:20:09;;;;;;;3.10;1.95;;;;;;;16.86;100.00;98844.66;5088657;28;20459;-71
2022/09/28 00:22:34;;;;;;;3.47;1.90;;;;;;;17.58;100.00;98935.31;5088926;28;20045;-70
2022/09/28 00:25:00;;;;;;;2.35;1.95;;;;;;;16.66;100.00;98837.53;5088534;28;20052;-71
2022/09/28 00:27:25;;;;;;;3.60;1.90;;;;;;;17.29;100.00;98933.09;5090814;28;20073;-70
2022/09/28 00:29:50;;;;;;;3.72;2.03;;;;;;;17.07;100.00;98881.59;5091102;28;20039;-71
2022/09/28 00:32:16;;;;;;;4.03;1.98;;;;;;;16.98;100.00;98874.56;5089280;28;20353;-70
2022/09/28 00:34:44;;;;;;;7.72;1.92;;;;;;;17.38;100.00;98935.91;5106367;28;20115;-72
2022/09/28 00:37:11;;;;;;;2.63;1.73;;;;;;;17.28;100.00;98949.44;5089513;28;20039;-72
2022/09/28 00:39:40;;;;;;;3.22;2.10;;;;;;;17.20;100.00;98935.50;5090844;28;20068;-72
2022/09/28 00:42:20;;;;;;;5.28;2.58;;;;;;;17.15;100.00;98896.50;5090578;28;20032;-74
2022/09/28 00:44:56;;;;;;;4.18;2.42;;;;;;;16.91;100.00;98870.81;5089513;28;20025;-72
2022/09/28 00:47:24;;;;;;;3.75;2.20;;;;;;;17.44;100.00;98949.16;5089335;28;20024;-71
2022/09/28 00:49:54;;;;;;;3.28;2.03;;;;;;;17.08;100.00;98877.31;5093652;28;20028;-71
2022/09/28 00:52:30;;;;;;;2.95;2.33;;;;;;;17.32;100.00;98932.88;5094222;28;20035;-71
2022/09/28 00:55:02;;;;;;;4.40;2.40;;;;;;;17.32;100.00;98939.75;5093217;28;20498;-71
2022/09/28 00:57:31;;;;;;;3.75;2.38;;;;;;;17.06;100.00;98935.66;5093181;28;20115;-72
2022/09/28 00:59:59;;;;;;;5.07;2.80;;;;;;;16.79;100.00;98891.41;5094004;28;20431;-73
2022/09/28 01:02:24;;;;;;;3.38;2.22;;;;;;;16.88;100.00;98893.31;5092842;28;20028;-73
2022/09/28 01:04:51;;;;;;;5.85;2.65;;;;;;;16.72;100.00;98880.75;5094055;28;20028;-72
2022/09/28 01:07:17;;;;;;;3.75;2.20;;;;;;;17.03;100.00;98892.22;5093926;28;20031;-72
2022/09/28 01:09:44;;;;;;;4.38;2.40;;;;;;;17.36;100.00;98938.59;5094059;28;20031;-72
2022/09/28 01:12:10;;;;;;;2.97;2.45;;;;;;;17.28;100.00;98936.59;5092537;28;20034;-72
2022/09/28 01:14:36;;;;;;;3.83;2.50;;;;;;;16.75;100.00;98877.97;5093424;28;20437;-71
2022/09/28 01:17:11;;;;;;;4.30;2.90;;;;;;;16.71;100.00;98862.88;5109142;28;20035;-71
2022/09/28 01:19:40;;;;;;;4.40;3.17;;;;;;;16.92;100.00;98940.94;5091543;28;20039;-71
2022/09/28 01:22:27;;;;;;;5.40;3.38;;;;;;;16.70;100.00;98925.44;5108412;28;20032;-71
2022/09/28 01:25:15;;;;;;;5.10;3.55;;;;;;;16.72;100.00;98929.50;5109008;28;20058;-70
2022/09/28 01:27:56;;;;;;;7.40;3.50;;;;;;;15.94;100.00;98843.47;5092326;28;20032;-72
2022/09/28 01:30:22;;;;;;;9.30;3.80;;;;;;;16.10;100.00;98844.03;5093684;28;20114;-71
2022/09/28 01:33:04;;;;;;;7.25;4.07;;;;;;;16.63;100.00;98924.19;5092968;28;20154;-72
2022/09/28 01:35:44;;;;;;;5.75;3.75;;;;;;;16.63;100.00;98930.16;5091962;28;20032;-71
2022/09/28 01:38:33;;;;;;;5.25;3.70;;;;;;;16.56;100.00;98920.44;5093081;28;20020;-72
2022/09/28 01:40:59;;;;;;;8.15;4.25;;;;;;;16.45;100.00;98932.22;5093368;28;20066;-71
2022/09/28 01:43:39;;;;;;;7.63;4.03;;;;;;;15.91;100.00;98822.31;5093407;28;20543;-73
2022/09/28 01:46:16;;;;;;;6.85;3.75;;;;;;;16.52;100.00;98942.09;5093328;28;20032;-71
2022/09/28 01:48:56;;;;;;;5.47;4.50;;;;;;;16.23;100.00;98920.97;5092952;28;20088;-71
2022/09/28 01:51:50;;;;;;;7.43;5.50;;;;;;;16.18;100.00;98920.47;5092857;28;20486;-71
2022/09/28 01:54:36;;;;;;;9.38;5.32;;;;;;;16.00;100.00;98914.00;5030528;28;20045;-72
2022/09/28 01:57:37;;;;;;;9.65;5.28;;;;;;;16.06;100.00;98917.00;5014014;28;20083;-72
2022/09/28 02:00:11;;;;;;;6.95;5.32;;;;;;;15.58;100.00;98836.50;5091595;28;20554;-71
2022/09/28 02:02:43;;;;;;;6.53;4.90;;;;;;;15.90;100.00;98844.59;5093048;28;20024;-72
2022/09/28 02:05:17;;;;;;;;;;;;;;;15.88;100.00;98915.66;5093458;28;20032;-70
2022/09/28 02:07:58;;;;;;;9.80;6.82;;;;;;;15.98;100.00;98916.69;5052627;28;19999;-71
2022/09/28 02:10:30;;;;;;;5.85;5.25;;;;;;;15.63;100.00;98870.31;5052554;28;20032;-71
2022/09/28 02:13:09;;;;;;;11.50;6.32;;;;;;;16.05;100.00;98919.63;5052448;28;20032;-71
2022/09/28 02:15:44;;;;;;;6.38;5.78;;;;;;;15.80;100.00;98866.66;5052381;28;20039;-71
2022/09/28 02:18:09;;;;;;;8.98;6.60;;;;;;;15.51;100.00;98860.88;5072450;28;20064;-71
2022/09/28 02:20:37;;;;;;;8.60;5.78;;;;;;;15.96;100.00;98907.44;5071472;28;20068;-72
2022/09/28 02:23:03;;;;;;;8.55;5.80;;;;;;;15.91;100.00;98920.56;5072384;28;20040;-72
2022/09/28 02:25:44;;;;;;;6.85;5.80;;;;;;;15.98;100.00;98898.75;5070427;28;20044;-72
2022/09/28 02:28:12;;;;;;;7.70;5.03;;;;;;;16.17;100.00;98941.88;5070714;28;20029;-71
2022/09/28 02:30:42;;;;;;;7.38;5.90;;;;;;;15.84;100.00;98882.63;5070652;28;20060;-72
2022/09/28 02:33:23;;;;;;;6.28;5.55;;;;;;;15.93;100.00;98951.22;5070697;28;20029;-72
2022/09/28 02:35:49;;;;;;;6.75;5.40;;;;;;;15.81;100.00;98957.16;5072165;28;20032;-73
2022/09/28 02:38:15;;;;;;;5.85;5.30;;;;;;;15.49;100.00;98872.97;5071938;28;20525;-73
2022/09/28 02:40:44;;;;;;;7.35;5.78;;;;;;;16.14;100.00;98937.78;5071777;28;20028;-71
2022/09/28 02:43:42;;;;;;;6.55;5.25;;;;;;;16.13;100.00;98948.97;5070449;28;20123;-70
2022/09/28 02:46:31;;;;;;;7.28;5.97;;;;;;;15.68;100.00;98917.88;5071921;28;20043;-72
2022/09/28 02:49:12;;;;;;;8.13;5.93;;;;;;;15.90;100.00;98941.19;5070595;28;20490;-71
2022/09/28 02:51:40;;;;;;;6.85;5.75;;;;;;;16.07;100.00;98923.75;5071885;28;20025;-71
2022/09/28 02:54:08;;;;;;;8.75;5.10;;;;;;;15.97;100.00;98945.78;5070223;28;20036;-74
2022/09/28 02:56:47;;;;;;;7.55;5.80;;;;;;;16.24;100.00;98932.88;5071984;28;20501;-71
2022/09/28 02:59:46;;;;;;;7.32;5.80;;;;;;;16.18;100.00;98946.09;5087058;28;20024;-69
2022/09/28 03:02:43;;;;;;;12.68;6.80;;;;;;;15.98;100.00;98944.88;5071417;28;20100;-69
2022/09/28 03:05:19;;;;;;;11.20;6.88;;;;;;;15.51;100.00;98872.84;5084666;28;20054;-69
2022/09/28 03:07:58;;;;;;;12.23;6.78;;;;;;;16.00;100.00;98932.78;5086903;28;20085;-75
2022/09/28 03:10:38;;;;;;;9.02;6.28;;;;;;;15.27;100.00;98830.91;5071091;28;20463;-72
2022/09/28 03:13:06;;;;;;;8.50;6.53;;;;;;;15.76;100.00;98929.28;5071465;28;20032;-69
2022/09/28 03:15:41;;;;;;;7.65;6.13;;;;;;;15.93;100.00;98946.09;5071795;28;20038;-69
2022/09/28 03:18:06;;;;;;;9.00;6.60;;;;;;;15.74;100.00;98889.28;5070916;28;20116;-69
2022/09/28 03:20:32;;;;;;;9.70;6.78;;;;;;;16.01;100.00;98931.84;5086547;28;20112;-69
2022/09/28 03:22:57;;;;;;;7.78;5.65;;;;;;;16.16;100.00;98943.63;5069891;28;20487;-70
2022/09/28 03:25:27;;;;;;;10.13;5.80;;;;;;;15.79;100.00;98956.41;5071236;28;20052;-70
2022/09/28 03:27:52;;;;;;;9.48;5.85;;;;;;;15.12;100.00;98830.16;5069421;28;20113;-70
2022/09/28 03:30:18;;;;;;;11.25;5.10;;;;;;;15.72;100.00;98901.38;5070598;28;20724;-71
2022/09/28 03:32:43;;;;;;;6.88;5.32;;;;;;;15.00;100.00;98830.97;5069948;28;20031;-71
2022/09/28 03:35:09;;;;;;;9.10;5.45;;;;;;;15.70;100.00;98954.47;5070916;28;20060;-73
2022/09/28 03:37:35;;;;;;;8.52;5.65;;;;;;;15.40;100.00;98935.03;5071159;28;20071;-71
2022/09/28 03:40:01;;;;;;;10.98;5.55;;;;;;;15.19;100.00;98877.47;5071168;28;20024;-71
2022/09/28 03:42:26;;;;;;;10.65;4.97;;;;;;;15.57;100.00;98950.16;5071252;28;20086;-71
2022/09/28 03:44:51;;;;;;;7.63;4.60;;;;;;;15.49;100.00;98890.91;5070789;28;20467;-70
2022/09/28 03:47:18;;;;;;;10.50;5.60;;;;;;;15.45;100.00;98948.38;5071077;28;20085;-72
2022/09/28 03:49:44;;;;;;;9.88;5.88;;;;;;;15.52;100.00;98956.50;5070950;28;20091;-71
2022/09/28 03:52:14;;;;;;;12.77;6.60;;;;;;;15.40;100.00;98947.00;5071136;28;20036;-76
2022/09/28 03:54:40;;;;;;;14.05;7.30;;;;;;;14.83;100.00;98945.56;5070919;28;20029;-72
2022/09/28 03:57:06;;;;;;;9.88;7.28;;;;;;;14.61;100.00;98884.66;5070856;28;20028;-72
2022/09/28 03:59:31;;;;;;;11.68;7.22;;;;;;;14.52;100.00;98880.09;5070877;28;20082;-71
2022/09/28 04:01:56;;;;;;;10.15;6.53;;;;;;;15.05;100.00;98949.25;5069324;28;20025;-71
2022/09/28 04:04:22;;;;;;;15.10;7.07;;;;;;;14.33;100.00;98825.91;5070636;28;20033;-73
2022/09/28 04:06:48;;;;;;;12.07;7.22;;;;;;;14.93;100.00;98937.22;5070757;28;20452;-73
2022/09/28 04:09:15;;;;;;;11.95;7.18;;;;;;;14.84;100.00;98945.44;5071114;28;20061;-69
2022/09/28 04:11:41;;;;;;;13.68;6.75;;;;;;;14.97;100.00;98955.75;5070483;28;20482;-71
2022/09/28 04:14:07;;;;;;;13.73;6.93;;;;;;;14.65;100.00;98891.22;5068953;28;20039;-69
2022/09/28 04:16:32;;;;;;;15.90;7.25;;;;;;;14.92;100.00;98963.72;5070506;28;20028;-68
2022/09/28 04:18:57;;;;;;;27.27;8.48;;;;;;;14.76;100.00;98968.13;5058892;28;20025;-71
2022/09/28 04:21:24;;;;;;;22.83;8.35;;;;;;;14.29;100.00;98927.53;5070647;28;20029;-70
2022/09/28 04:23:51;;;;;;;20.42;8.13;;;;;;;14.62;100.00;98986.03;5070037;28;20040;-70
2022/09/28 04:26:23;;;;;;;26.70;8.48;;;;;;;14.27;100.00;98900.38;5072515;28;20448;-69
2022/09/28 04:31:40;;;;;;;13.38;7.20;;;;;;;14.92;100.00;98978.22;5074312;28;20409;-70
2022/09/28 04:34:06;;;;;;;17.17;7.85;;;;;;;14.71;100.00;98907.03;5075973;28;20032;-70
2022/09/28 04:36:31;;;;;;;15.00;7.65;;;;;;;14.92;100.00;98943.22;5072894;28;20095;-70
2022/09/28 04:38:56;;;;;;;19.88;8.25;;;;;;;14.98;100.00;98996.59;5073226;28;20547;-71
2022/09/28 04:41:22;;;;;;;20.20;8.43;;;;;;;14.60;100.00;98927.31;5072783;28;20043;-69
2022/09/28 04:43:49;;;;;;;13.40;8.40;;;;;;;14.64;100.00;98928.75;5071817;28;20036;-69
2022/09/28 04:46:14;;;;;;;18.17;8.13;;;;;;;14.85;100.00;98956.50;5070353;28;20064;-69
2022/09/28 04:48:40;;;;;;;14.43;8.02;;;;;;;14.92;100.00;98945.78;5073288;28;20057;-69
2022/09/28 04:51:05;;;;;;;13.75;7.82;;;;;;;15.28;100.00;99007.50;5072336;28;20056;-69
2022/09/28 04:53:31;;;;;;;14.98;7.72;;;;;;;15.18;100.00;98985.94;5073803;28;20530;-69
2022/09/28 04:55:58;;;;;;;16.90;7.90;;;;;;;14.96;100.00;98882.44;5073617;28;20033;-69
2022/09/28 04:58:24;;;;;;;13.43;8.25;;;;;;;15.28;100.00;98940.09;5072246;28;20039;-69
2022/09/28 05:00:50;;;;;;;14.60;7.53;;;;;;;16.32;100.00;98949.38;5073452;28;20570;-69
2022/09/28 05:03:16;;;;;;;12.55;8.30;;;;;;;19.69;100.00;99037.34;5088908;28;20029;-69
2022/09/28 05:05:43;;;;;;;12.85;7.65;;;;;;;20.61;100.00;99092.53;5072540;28;20041;-69
2022/09/28 05:08:09;;;;;;;11.23;7.38;;;;;;;20.46;100.00;99033.56;5073091;28;20051;-69
2022/09/28 05:10:34;;;;;;;10.68;7.35;;;;;;;19.35;100.00;99004.91;5073055;28;20479;-69
2022/09/28 05:13:01;;;;;;;12.70;7.50;;;;;;;18.85;100.00;99080.94;5073035;28;20028;-69
2022/09/28 05:15:26;;;;;;;8.85;6.53;;;;;;;17.10;100.00;99004.69;5073421;28;20112;-69
2022/09/28 05:17:52;;;;;;;15.80;7.20;;;;;;;17.91;100.00;99072.53;5072115;28;20111;-69
2022/09/28 05:20:17;;;;;;;12.32;7.32;;;;;;;17.11;100.00;98985.75;5072913;28;20111;-69
2022/09/28 05:22:43;;;;;;;10.20;6.78;;;;;;;17.14;100.00;99010.41;5073104;28;20445;-69
2022/09/28 05:25:08;;;;;;;10.80;7.20;;;;;;;17.73;100.00;99061.00;5073224;28;20060;-69
2022/09/28 05:27:34;;;;;;;13.35;7.05;;;;;;;18.25;100.00;99070.88;5073000;28;20039;-69
2022/09/28 05:29:59;;;;;;;19.40;7.53;;;;;;;18.38;100.00;99066.44;5073004;28;20032;-69
2022/09/28 05:32:24;;;;;;;19.15;7.93;;;;;;;17.78;100.00;99070.97;5072774;28;20071;-70
2022/09/28 05:34:50;;;;;;;17.23;7.32;;;;;;;18.69;100.00;99090.78;5072160;28;20109;-69
2022/09/28 05:37:15;;;;;;;16.52;7.78;;;;;;;18.97;100.00;99090.31;5072773;28;20029;-69
2022/09/28 05:39:41;;;;;;;13.00;7.10;;;;;;;18.50;100.00;99041.59;5072412;28;20398;-69
2022/09/28 05:42:06;;;;;;;11.32;7.10;;;;;;;18.52;100.00;99098.94;5072907;28;20044;-69
2022/09/28 05:44:32;;;;;;;9.57;7.13;;;;;;;17.90;100.00;99063.19;5071321;28;20040;-69
2022/09/28 05:46:57;;;;;;;12.18;7.40;;;;;;;18.33;100.00;99078.84;5072699;28;20029;-69
2022/09/28 05:49:23;;;;;;;13.05;7.47;;;;;;;18.31;100.00;99039.53;5070822;28;20119;-69
2022/09/28 05:51:48;;;;;;;12.60;8.23;;;;;;;18.18;100.00;99033.69;5072324;28;20020;-69
2022/09/28 05:54:14;;;;;;;14.07;7.93;;;;;;;18.79;100.00;99048.75;5072562;28;20110;-69
2022/09/28 05:56:39;;;;;;;11.13;7.20;;;;;;;18.89;100.00;99041.97;5072276;28;20067;-70
2022/09/28 05:59:05;;;;;;;10.20;7.05;;;;;;;19.17;100.00;99052.72;5072571;28;20024;-70
2022/09/28 06:01:30;;;;;;;8.40;5.57;;;;;;;18.11;100.00;99017.03;5071205;28;20064;-70
2022/09/28 06:03:55;;;;;;;6.53;5.60;;;;;;;18.65;100.00;99059.28;5072542;28;20029;-69
2022/09/28 06:06:21;;;;;;;7.78;5.65;;;;;;;18.15;100.00;99046.75;5071804;28;20032;-68
2022/09/28 06:08:47;;;;;;;10.07;5.70;;;;;;;18.96;100.00;99081.75;5071133;28;20082;-69
2022/09/28 06:11:12;;;;;;;7.93;5.90;;;;;;;19.84;100.00;99139.31;5072131;28;20032;-68
2022/09/28 06:13:38;;;;;;;10.07;5.30;;;;;;;19.96;100.00;99079.00;5071964;28;20158;-68
2022/09/28 06:16:06;;;;;;;6.60;5.22;;;;;;;20.58;100.00;99131.50;5072238;28;20414;-68
2022/09/28 06:18:32;;;;;;;6.65;5.25;;;;;;;19.95;100.00;99136.69;5070439;28;20035;-69
2022/09/28 06:20:57;;;;;;;8.57;5.60;;;;;;;19.73;100.00;99085.16;5071912;28;20033;-69
2022/09/28 06:23:23;;;;;;;8.45;5.20;;;;;;;20.52;100.00;99126.03;5071473;28;20056;-68
2022/09/28 06:25:48;;;;;;;10.63;5.47;;;;;;;20.70;100.00;99102.06;5071835;28;20039;-69
2022/09/28 06:28:14;;;;;;;7.38;5.18;;;;;;;20.38;100.00;99085.03;5070697;28;20123;-69
2022/09/28 06:30:41;;;;;;;6.68;4.85;;;;;;;20.77;100.00;99088.66;5070360;28;20309;-69
2022/09/28 06:33:09;;;;;;;8.52;4.60;;;;;;;21.20;100.00;99081.50;5087518;28;20111;-70
2022/09/28 06:35:35;;;;;;;8.75;5.05;;;;;;;21.61;100.00;99127.88;5070599;28;20040;-70
2022/09/28 06:38:01;;;;;;;8.80;4.88;;;;;;;21.53;100.00;99114.81;5071876;28;20028;-71
2022/09/28 06:40:27;;;;;;;9.70;5.63;;;;;;;21.17;100.00;99129.13;5070467;28;20056;-72
2022/09/28 06:43:09;;;;;;;7.55;5.28;;;;;;;21.72;100.00;99145.88;5070517;28;20033;-71
2022/09/28 06:45:36;;;;;;;7.78;5.43;;;;;;;21.65;100.00;99134.41;5086306;28;20104;-70
2022/09/28 06:48:02;;;;;;;8.45;4.97;;;;;;;21.58;100.00;99095.34;5071554;28;20036;-72
2022/09/28 06:50:33;;;;;;;8.95;5.13;;;;;;;21.93;100.00;99140.63;5071694;28;20513;-70
2022/09/28 06:53:00;;;;;;;8.50;5.15;;;;;;;22.43;100.00;99148.13;5071842;28;20153;-70
2022/09/28 06:55:26;;;;;;;8.45;4.40;;;;;;;22.34;100.00;99138.56;5071340;28;20472;-70
2022/09/28 06:58:08;;;;;;;6.32;4.53;;;;;;;22.69;100.00;99125.06;5071444;28;20383;-71
2022/09/28 07:00:35;;;;;;;8.65;4.43;;;;;;;22.25;100.00;99131.66;5071392;28;20029;-71
2022/09/28 07:03:02;;;;;;;7.45;4.43;;;;;;;22.30;100.00;99120.88;5071451;28;20089;-70
2022/09/28 07:05:28;;;;;;;9.38;4.47;;;;;;;21.93;100.00;99112.97;5071322;28;20418;-70
2022/09/28 07:07:57;;;;;;;12.15;4.28;;;;;;;21.96;100.00;99076.47;5070166;28;20025;-70
2022/09/28 07:10:27;;;;;;;10.85;4.00;;;;;;;22.46;100.00;99141.88;5071402;28;20090;-71
2022/09/28 07:12:55;;;;;;;13.85;3.42;;;;;;;22.94;100.00;99131.41;5071085;28;20029;-71
2022/09/28 07:15:21;;;;;;;7.88;3.00;;;;;;;23.01;100.00;99124.69;5071415;28;20105;-71
2022/09/28 07:17:47;;;;;;;5.03;2.85;;;;;;;23.01;100.00;99127.28;5070835;28;20033;-71
2022/09/28 07:20:13;;;;;;;9.30;2.90;;;;;;;23.01;100.00;99135.91;5071409;28;20024;-70
2022/09/28 07:22:39;;;;;;;8.15;2.88;;;;;;;23.29;100.00;99101.22;5069782;28;20499;-70
2022/09/28 07:25:08;;;;;;;6.25;2.45;;;;;;;22.51;100.00;99068.88;5070489;28;20075;-70
2022/09/28 07:27:37;;;;;;;4.68;2.30;;;;;;;23.06;100.00;99074.03;5069936;28;20031;-74
2022/09/28 07:30:06;;;;;;;9.57;3.00;;;;;;;22.87;100.00;99035.22;5069886;28;20032;-69
2022/09/28 07:32:33;;;;;;;3.83;2.60;;;;;;;23.92;100.00;99114.25;5069478;28;20451;-71
2022/09/28 07:35:03;;;;;;;6.75;3.17;;;;;;;22.99;100.00;99020.28;5071137;28;20029;-70
2022/09/28 07:37:29;;;;;;;5.25;3.13;;;;;;;23.65;100.00;99112.50;5070831;28;20034;-70
2022/09/28 07:42:38;;;;;;;5.15;2.50;;;;;;;23.22;100.00;99045.69;5071020;28;20032;-71
2022/09/28 07:45:05;;;;;;;3.97;2.65;;;;;;;23.23;100.00;99041.31;5070920;28;20025;-70
2022/09/28 07:47:31;;;;;;;4.90;2.13;;;;;;;24.17;100.00;99138.66;5070778;28;20047;-71
2022/09/28 07:49:56;;;;;;;3.58;2.40;;;;;;;22.87;100.00;99143.31;5071075;28;20435;-70
2022/09/28 07:52:24;;;;;;;3.75;1.95;;;;;;;23.60;100.00;99145.06;5070955;28;20036;-70
2022/09/28 07:54:51;;;;;;;3.47;2.10;;;;;;;24.71;100.00;99134.06;5070645;28;20040;-70
2022/09/28 07:57:18;;;;;;;4.40;2.75;;;;;;;23.69;100.00;99142.41;5071594;28;20036;-71
2022/09/28 07:59:44;;;;;;;2.80;2.15;;;;;;;24.21;100.00;99150.41;5075021;28;20024;-71
2022/09/28 08:02:10;;;;;;;8.63;2.70;;;;;;;24.15;100.00;99105.03;5074994;28;20048;-71
2022/09/28 08:04:35;;;;;;;2.90;2.58;;;;;;;24.05;100.00;99092.16;5073824;28;20028;-70
2022/09/28 08:07:01;;;;;;;3.75;2.50;;;;;;;24.14;100.00;99108.63;5072406;28;20029;-70
2022/09/28 08:09:28;;;;;;;7.15;3.00;;;;;;;24.70;100.00;99139.44;5072540;28;20104;-70
2022/09/28 08:11:53;;;;;;;4.63;2.85;;;;;;;24.57;100.00;99139.00;5074704;28;20036;-70
2022/09/28 08:14:19;;;;;;;4.32;2.70;;;;;;;25.44;100.00;99135.28;5073234;28;20063;-70
2022/09/28 08:16:44;;;;;;;7.57;2.60;;;;;;;24.98;100.00;99059.47;5074535;28;20028;-69
2022/09/28 08:19:10;;;;;;;5.00;2.72;;;;;;;25.30;100.00;99122.84;5073298;28;20406;-70
2022/09/28 08:21:44;;;;;;;5.75;2.70;;;;;;;24.32;100.00;99069.63;5089657;28;20033;-71
2022/09/28 08:24:14;;;;;;;2.78;2.28;;;;;;;24.68;100.00;99108.34;5089652;28;20052;-71
2022/09/28 08:26:40;;;;;;;3.20;2.50;;;;;;;26.20;100.00;99143.78;5073050;28;20067;-70
2022/09/28 08:29:05;;;;;;;3.65;2.38;;;;;;;26.01;100.00;99120.59;5074142;28;20476;-70
2022/09/28 08:31:31;;;;;;;4.07;2.70;;;;;;;25.83;100.00;99135.53;5074370;28;20141;-70
2022/09/28 08:33:56;;;;;;;5.22;2.58;;;;;;;25.07;100.00;99118.34;5073990;28;20024;-70
2022/09/28 08:36:22;;;;;;;4.45;2.50;;;;;;;25.76;100.00;99114.56;5072696;28;20238;-70
2022/09/28 08:38:48;;;;;;;3.38;2.30;;;;;;;26.22;100.00;99134.00;5072788;28;20028;-70
2022/09/28 08:41:23;;;;;;;3.78;2.40;;;;;;;26.64;100.00;99133.81;5074180;28;20044;-71
2022/09/28 08:44:08;;;;;;;3.55;2.28;;;;;;;26.29;100.00;99132.38;5089379;28;20032;-70
2022/09/28 08:46:39;;;;;;;4.93;2.35;;;;;;;25.61;100.00;99134.34;5072654;28;20032;-71
2022/09/28 08:49:10;;;;;;;3.30;2.40;;;;;;;25.04;100.00;99074.44;5073817;28;20035;-70
2022/09/28 08:51:49;;;;;;;4.70;2.45;;;;;;;26.23;100.00;99113.94;5074148;28;20044;-70
2022/09/28 08:54:37;;;;;;;4.57;2.30;;;;;;;26.10;100.00;99113.63;5072648;28;20460;-69
2022/09/28 08:57:22;;;;;;;4.18;2.42;;;;;;;25.53;100.00;99058.81;5089275;28;20024;-71
2022/09/28 08:59:54;;;;;;;4.63;3.17;;;;;;;25.90;100.00;99112.28;5073635;28;20029;-70
2022/09/28 09:02:38;;;;;;;4.32;2.08;;;;;;;25.98;100.00;99070.59;5072278;28;20494;-69
2022/09/28 09:05:06;;;;;;;4.30;1.88;;;;;;;26.65;100.00;99070.22;5073576;28;20035;-70
2022/09/28 09:07:50;;;;;;;2.67;1.65;;;;;;;25.34;100.00;99124.16;5088954;28;20036;-71
2022/09/28 09:10:16;;;;;;;1.80;1.50;;;;;;;26.51;100.00;99123.06;5071130;28;20167;-70
2022/09/28 09:13:03;;;;;;;2.25;1.50;;;;;;;27.74;90.79;99124.13;5073392;28;20111;-70
2022/09/28 09:15:54;;;;;;;2.35;1.38;;;;;;;26.76;90.65;99121.28;5073445;28;20537;-70
2022/09/28 09:18:51;;;;;;;3.50;1.77;;;;;;;27.86;91.87;99125.38;5072144;28;20089;-70
2022/09/28 09:21:25;;;;;;;5.53;1.50;;;;;;;27.48;89.45;99125.41;5073353;28;20024;-70
2022/09/28 09:23:56;;;;;;;2.50;1.40;;;;;;;26.77;91.13;99076.75;5088783;28;20414;-69
2022/09/28 09:26:38;;;;;;;3.30;1.60;;;;;;;27.60;91.77;99121.44;5072808;28;20402;-71
2022/09/28 09:29:24;;;;;;;2.22;1.50;;;;;;;27.08;88.08;99132.41;5073142;28;20036;-72
2022/09/28 09:32:01;;;;;;;3.72;1.60;;;;;;;27.52;85.78;99124.09;5071574;28;20431;-71
2022/09/28 09:34:42;;;;;;;4.38;1.98;;;;;;;27.49;86.63;99130.50;4721707;28;10000592;-70
2022/09/28 09:37:44;;;;;;;4.50;1.60;;;;;;;26.58;88.75;99045.81;5072269;28;20491;-71
2022/09/28 09:40:33;;;;;;;4.22;2.78;;;;;;;27.74;83.23;99071.88;5057509;28;20040;-71
2022/09/28 09:43:07;;;;;;;2.20;1.48;;;;;;;27.94;81.65;99062.59;5071812;28;20036;-70
2022/09/28 09:45:47;;;;;;;2.75;1.80;;;;;;;28.27;77.96;99120.66;5069743;28;20146;-73
2022/09/28 09:48:19;;;;;;;3.30;1.55;;;;;;;28.51;78.16;99111.78;5071915;28;20038;-73
2022/09/28 09:50:50;;;;;;;2.53;1.60;;;;;;;27.58;85.60;99055.50;5069907;28;20044;-72
2022/09/28 09:53:28;;;;;;;3.00;1.63;;;;;;;26.77;90.12;99117.66;5070526;28;20036;-71
2022/09/28 09:55:57;;;;;;;2.55;1.90;;;;;;;27.63;90.98;99101.03;5073741;28;20048;-73
2022/09/28 09:58:30;;;;;;;2.30;1.58;;;;;;;26.72;89.21;99109.53;5071322;28;20032;-69
2022/09/28 10:01:11;;;;;;;4.25;1.70;;;;;;;28.48;78.31;99099.91;5072458;28;20031;-69
2022/09/28 10:03:41;;;;;;;5.55;2.00;;;;;;;26.68;87.86;99063.88;5071371;28;20041;-69
2022/09/28 10:06:15;;;;;;;3.40;1.80;;;;;;;28.25;80.67;99084.25;5087860;28;20085;-69
2022/09/28 10:08:44;;;;;;;2.58;1.65;;;;;;;28.10;75.63;99056.44;5072502;28;20039;-69
2022/09/28 10:11:15;;;;;;;3.30;1.50;;;;;;;29.17;71.71;99095.25;5072331;28;20071;-69
2022/09/28 10:13:41;;;;;;;2.75;1.50;;;;;;;28.12;72.01;99038.75;5072436;28;20031;-69
2022/09/28 10:16:07;;;;;;;3.05;1.88;;;;;;;28.20;72.97;99094.44;5070947;28;20040;-70
2022/09/28 10:18:34;;;;;;;2.45;1.58;;;;;;;28.42;74.78;99039.63;5072289;28;20025;-70
2022/09/28 10:20:59;;;;;;;3.17;1.40;;;;;;;28.53;68.49;99099.34;5072322;28;20111;-70
2022/09/28 10:23:32;;;;;;;3.33;1.90;;;;;;;29.09;62.15;99083.03;5070749;28;20031;-70
2022/09/28 10:26:23;;;;;;;2.80;1.33;;;;;;;28.30;61.82;98994.78;5071965;28;20025;-70
2022/09/28 10:29:00;;;;;;;2.40;1.33;;;;;;;29.50;55.11;99046.66;5071021;28;20047;-70
2022/09/28 10:31:52;;;;;;;3.00;1.15;;;;;;;29.49;54.80;99089.59;5070795;28;20033;-70
2022/09/28 10:34:28;;;;;;;5.15;1.20;;;;;;;28.00;59.77;99097.69;5070539;28;20063;-74
2022/09/28 10:37:02;;;;;;;5.07;1.30;;;;;;;29.15;57.96;99082.34;5070677;28;20032;-70
2022/09/28 10:39:32;;;;;;;3.00;1.30;;;;;;;29.19;53.38;99085.41;5070511;28;20415;-70
2022/09/28 10:42:05;;;;;;;4.13;1.33;;;;;;;29.27;57.88;99074.81;5070577;28;20028;-70
2022/09/28 10:44:48;;;;;;;3.22;1.10;;;;;;;28.50;57.97;99065.69;5071703;28;20087;-70
2022/09/28 10:47:17;;;;;;;3.92;1.10;;;;;;;28.86;51.46;99033.41;5070513;28;20078;-69
2022/09/28 10:49:47;;;;;;;3.45;1.33;;;;;;;29.26;53.43;99047.03;5070510;28;20051;-69
2022/09/28 10:52:31;;;;;;;2.85;1.30;;;;;;;29.17;52.39;99069.88;5071655;28;20028;-70
2022/09/28 10:54:57;;;;;;;1.80;1.20;;;;;;;28.13;56.93;99056.06;5070074;28;20047;-69
2022/09/28 10:57:33;;;;;;;5.05;1.40;;;;;;;28.80;54.88;99055.06;5070347;28;20032;-70
2022/09/28 11:00:00;;;;;;;3.65;1.63;;;;;;;28.75;57.16;99049.59;5071373;28;20125;-70
2022/09/28 11:02:31;;;;;;;5.35;1.60;;;;;;;28.05;58.09;99006.47;5071485;28;20021;-70
2022/09/28 11:05:00;;;;;;;5.25;1.48;;;;;;;28.97;57.36;99063.56;5071344;28;20047;-70
2022/09/28 11:07:31;;;;;;;4.32;1.67;;;;;;;28.95;54.37;98997.47;5071491;28;20029;-70
2022/09/28 11:10:00;;;;;;;3.42;1.80;;;;;;;29.57;50.03;98995.13;5071543;28;20035;-70
2022/09/28 11:12:32;;;;;;;3.92;1.42;;;;;;;29.38;51.22;99056.81;5071330;28;20406;-70
2022/09/28 11:15:03;;;;;;;2.03;1.20;;;;;;;29.03;56.61;99000.81;5070070;28;20035;-71
2022/09/28 11:17:37;;;;;;;4.32;1.45;;;;;;;29.78;56.51;99040.53;5071447;28;20334;-70
2022/09/28 11:20:24;;;;;;;2.90;1.40;;;;;;;29.19;52.97;99043.50;5071165;28;20043;-70
2022/09/28 11:22:55;;;;;;;1.85;1.23;;;;;;;28.80;53.52;99035.97;5070042;28;20032;-71
2022/09/28 11:25:23;;;;;;;2.88;1.30;;;;;;;29.16;52.81;99038.66;5070408;28;20036;-70
2022/09/28 11:27:51;;;;;;;2.88;1.42;;;;;;;30.05;50.75;99040.75;5070325;28;20032;-70
2022/09/28 11:30:28;;;;;;;2.78;1.35;;;;;;;29.33;50.43;99037.41;5070912;28;20028;-70
2022/09/28 11:33:00;;;;;;;5.00;1.50;;;;;;;28.84;51.55;99030.16;5070776;28;20089;-71
2022/09/28 11:35:45;;;;;;;2.25;1.00;;;;;;;29.41;49.94;98970.00;5071436;28;20021;-70
2022/09/28 11:38:24;;;;;;;1.98;1.17;;;;;;;28.74;52.86;99024.38;5069948;28;20059;-70
2022/09/28 11:41:10;;;;;;;3.72;1.30;;;;;;;29.65;49.67;99031.69;5069938;28;20062;-70
2022/09/28 11:43:50;;;;;;;2.75;1.08;;;;;;;29.64;51.00;99015.16;5069836;28;20024;-70
2022/09/28 11:46:31;;;;;;;3.63;1.38;;;;;;;30.39;49.36;99019.81;5069683;28;20039;-70